createdAt,value
2023-04-22T00:02:14.868Z,93857.91
2023-04-22T00:04:42.008Z,93846.84
2023-04-22T00:07:09.071Z,93849.59
2023-04-22T00:09:36.343Z,93857.16
2023-04-22T00:12:03.355Z,93842.81
2023-04-22T00:14:30.451Z,93848.72
2023-04-22T00:16:57.530Z,93849.19
2023-04-22T00:19:24.535Z,93845.59
2023-04-22T00:21:51.461Z,93844.78
2023-04-22T00:24:18.210Z,93849.50
2023-04-22T00:26:45.009Z,93851.31
2023-04-22T00:29:11.649Z,93851.09
2023-04-22T00:31:38.424Z,93852.69
2023-04-22T00:34:05.141Z,93849.50
2023-04-22T00:36:32.009Z,93850.00
2023-04-22T00:38:58.739Z,93846.22
2023-04-22T00:41:26.026Z,93843.84
2023-04-22T00:43:53.674Z,93841.03
2023-04-22T00:46:20.968Z,93841.84
2023-04-22T00:48:47.785Z,93840.25
2023-04-22T00:51:14.444Z,93840.00
2023-04-22T00:53:41.184Z,93843.00
2023-04-22T00:56:08.075Z,93848.41
2023-04-22T00:58:34.940Z,93842.91
2023-04-22T01:01:01.836Z,93841.13
2023-04-22T01:03:30.947Z,93844.50
2023-04-22T01:05:58.441Z,93853.06
2023-04-22T01:08:28.581Z,93855.72
2023-04-22T01:10:56.417Z,93829.16
2023-04-22T01:13:24.238Z,93849.66
2023-04-22T01:15:51.898Z,93852.31
2023-04-22T01:18:19.241Z,93852.59
2023-04-22T01:20:46.078Z,93845.56
2023-04-22T01:23:22.572Z,93849.69
2023-04-22T01:25:49.810Z,93857.03
2023-04-22T01:28:17.955Z,93855.50
2023-04-22T01:30:45.278Z,93842.91
2023-04-22T01:33:12.499Z,93844.59
2023-04-22T01:35:41.500Z,93842.91
2023-04-22T01:38:10.679Z,93848.91
2023-04-22T01:40:38.072Z,93848.06
2023-04-22T01:43:05.815Z,93840.31
2023-04-22T01:45:32.594Z,93846.56
2023-04-22T01:47:59.316Z,93843.09
2023-04-22T01:50:26.043Z,93841.50
2023-04-22T01:52:53.056Z,93844.44
2023-04-22T01:55:19.790Z,93840.88
2023-04-22T01:57:46.605Z,93838.84
2023-04-22T02:00:13.695Z,93837.56
2023-04-22T02:02:40.852Z,93842.34
2023-04-22T02:05:08.574Z,93838.31
2023-04-22T02:07:36.540Z,93845.13
2023-04-22T02:10:04.975Z,93842.34
2023-04-22T02:12:32.466Z,93833.41
2023-04-22T02:14:59.398Z,93832.38
2023-04-22T02:17:27.199Z,93824.84
2023-04-22T02:19:53.988Z,93835.19
2023-04-22T02:22:22.321Z,93837.78
2023-04-22T02:24:49.198Z,93835.00
2023-04-22T02:27:15.891Z,93828.09
2023-04-22T02:29:42.745Z,93831.47
2023-04-22T02:32:09.432Z,93830.78
2023-04-22T02:34:36.653Z,93836.56
2023-04-22T02:37:03.396Z,93836.28
2023-04-22T02:39:30.186Z,93833.72
2023-04-22T02:41:56.906Z,93832.69
2023-04-22T02:44:23.667Z,93836.28
2023-04-22T02:46:50.881Z,93838.44
2023-04-22T02:49:17.729Z,93829.59
2023-04-22T02:51:44.547Z,93835.53
2023-04-22T02:54:11.330Z,93831.75
2023-04-22T02:56:38.063Z,93831.75
2023-04-22T02:59:04.884Z,93832.41
2023-04-22T03:01:32.456Z,93828.97
2023-04-22T03:03:59.804Z,93835.72
2023-04-22T03:06:26.879Z,93829.50
2023-04-22T03:08:53.638Z,93825.50
2023-04-22T03:11:20.932Z,93835.25
2023-04-22T03:13:47.766Z,93834.53
2023-04-22T03:16:16.877Z,93838.91
2023-04-22T03:18:43.668Z,93839.84
2023-04-22T03:21:10.576Z,93821.38
2023-04-22T03:23:37.334Z,93839.47
2023-04-22T03:26:04.088Z,93836.53
2023-04-22T03:28:30.859Z,93845.34
2023-04-22T03:30:57.562Z,93834.09
2023-04-22T03:33:24.408Z,93836.13
2023-04-22T03:35:51.223Z,93844.47
2023-04-22T03:38:18.300Z,93831.41
2023-04-22T03:40:45.066Z,93841.78
2023-04-22T03:43:11.971Z,93840.53
2023-04-22T03:45:39.006Z,93828.47
2023-04-22T03:48:06.052Z,93836.19
2023-04-22T03:50:33.533Z,93842.59
2023-04-22T03:53:00.250Z,93832.56
2023-04-22T03:55:27.077Z,93845.34
2023-04-22T03:57:53.828Z,93851.44
2023-04-22T04:00:20.782Z,93857.31
2023-04-22T04:02:47.597Z,93856.09
2023-04-22T04:05:14.493Z,93851.34
2023-04-22T04:07:41.354Z,93850.56
2023-04-22T04:10:08.695Z,93856.59
2023-04-22T04:12:35.442Z,93854.47
2023-04-22T04:15:02.178Z,93860.63
2023-04-22T04:17:29.102Z,93865.34
2023-04-22T04:19:55.998Z,93867.94
2023-04-22T04:22:22.976Z,93866.00
2023-04-22T04:24:50.037Z,93859.69
2023-04-22T04:27:16.640Z,93849.59
2023-04-22T04:29:43.298Z,93872.19
2023-04-22T04:32:10.384Z,93867.38
2023-04-22T04:34:39.841Z,93866.00
2023-04-22T04:37:06.564Z,93863.38
2023-04-22T04:39:33.694Z,93854.56
2023-04-22T04:42:00.570Z,93864.03
2023-04-22T04:44:27.476Z,93865.19
2023-04-22T04:46:55.088Z,93869.72
2023-04-22T04:49:22.014Z,93866.88
2023-04-22T04:51:48.632Z,93872.72
2023-04-22T04:54:15.829Z,93863.06
2023-04-22T04:56:42.700Z,93869.94
2023-04-22T04:59:09.443Z,93869.00
2023-04-22T05:01:36.078Z,93868.88
2023-04-22T05:04:03.020Z,93876.91
2023-04-22T05:06:30.008Z,93875.25
2023-04-22T05:08:56.579Z,93875.09
2023-04-22T05:11:23.226Z,93877.44
2023-04-22T05:13:49.802Z,93885.25
2023-04-22T05:16:16.640Z,93864.25
2023-04-22T05:18:43.376Z,93880.72
2023-04-22T05:21:10.091Z,93874.16
2023-04-22T05:23:36.941Z,93884.03
2023-04-22T05:26:03.667Z,93867.41
2023-04-22T05:28:30.312Z,93881.75
2023-04-22T05:30:57.760Z,93882.13
2023-04-22T05:33:24.364Z,93885.53
2023-04-22T05:35:52.412Z,93879.03
2023-04-22T05:38:19.080Z,93872.66
2023-04-22T05:40:45.712Z,93877.03
2023-04-22T05:43:12.468Z,93875.44
2023-04-22T05:45:39.147Z,93877.41
2023-04-22T05:48:05.938Z,93881.34
2023-04-22T05:50:32.825Z,93876.41
2023-04-22T05:52:59.466Z,93866.78
2023-04-22T05:55:26.092Z,93872.63
2023-04-22T05:57:52.761Z,93878.94
2023-04-22T06:00:19.596Z,93883.56
2023-04-22T06:02:46.361Z,93884.97
2023-04-22T06:05:13.203Z,93868.41
2023-04-22T06:07:40.552Z,93875.44
2023-04-22T06:10:08.282Z,93881.13
2023-04-22T06:12:35.728Z,93876.63
2023-04-22T06:15:02.488Z,93868.78
2023-04-22T06:17:29.118Z,93873.31
2023-04-22T06:19:55.732Z,93872.69
2023-04-22T06:22:22.574Z,93872.06
2023-04-22T06:24:49.151Z,93881.72
2023-04-22T06:27:15.888Z,93876.28
2023-04-22T06:29:42.496Z,93877.97
2023-04-22T06:32:09.107Z,93876.91
2023-04-22T06:34:35.784Z,93874.38
2023-04-22T06:37:02.441Z,93880.63
2023-04-22T06:39:29.011Z,93869.34
2023-04-22T06:41:55.830Z,93860.97
2023-04-22T06:44:22.705Z,93875.38
2023-04-22T06:46:49.374Z,93882.03
2023-04-22T06:49:15.983Z,93869.81
2023-04-22T06:51:42.704Z,93855.00
2023-04-22T06:54:09.551Z,93875.31
2023-04-22T06:56:36.359Z,93865.44
2023-04-22T06:59:03.108Z,93870.63
2023-04-22T07:01:29.806Z,93885.56
2023-04-22T07:03:56.657Z,93884.97
2023-04-22T07:06:23.494Z,93863.69
2023-04-22T07:08:50.346Z,93876.34
2023-04-22T07:11:17.029Z,93874.59
2023-04-22T07:13:43.785Z,93871.88
2023-04-22T07:16:10.583Z,93867.56
2023-04-22T07:18:37.300Z,93879.13
2023-04-22T07:21:04.318Z,93874.91
2023-04-22T07:23:31.145Z,93879.63
2023-04-22T07:25:57.850Z,93880.72
2023-04-22T07:28:24.666Z,93873.41
2023-04-22T07:30:51.384Z,93872.09
2023-04-22T07:33:18.144Z,93872.91
2023-04-22T07:35:44.756Z,93863.47
2023-04-22T07:38:13.366Z,93864.25
2023-04-22T07:40:41.147Z,93868.88
2023-04-22T07:43:08.060Z,93861.06
2023-04-22T07:45:35.023Z,93863.13
2023-04-22T07:48:01.917Z,93869.84
2023-04-22T07:50:28.572Z,93852.38
2023-04-22T07:52:55.489Z,93870.53
2023-04-22T07:55:22.114Z,93863.19
2023-04-22T07:57:48.776Z,93864.59
2023-04-22T08:00:15.925Z,93855.53
2023-04-22T08:02:44.241Z,93857.66
2023-04-22T08:05:11.814Z,93855.34
2023-04-22T08:07:38.670Z,93834.16
2023-04-22T08:10:06.370Z,93844.75
2023-04-22T08:12:33.098Z,93844.88
2023-04-22T08:14:59.767Z,93839.28
2023-04-22T08:17:26.930Z,93827.03
2023-04-22T08:19:53.715Z,93825.38
2023-04-22T08:22:20.612Z,93828.44
2023-04-22T08:24:47.268Z,93828.06
2023-04-22T08:27:13.958Z,93829.78
2023-04-22T08:29:41.103Z,93820.38
2023-04-22T08:32:08.065Z,93826.72
2023-04-22T08:34:35.219Z,93818.59
2023-04-22T08:37:02.002Z,93828.88
2023-04-22T08:39:28.662Z,93815.44
2023-04-22T08:41:56.440Z,93806.66
2023-04-22T08:44:23.223Z,93805.06
2023-04-22T08:46:51.322Z,93799.34
2023-04-22T08:49:18.989Z,93800.78
2023-04-22T08:51:46.196Z,93799.84
2023-04-22T08:54:13.148Z,93790.47
2023-04-22T08:56:45.088Z,93788.53
2023-04-22T08:59:12.677Z,93784.81
2023-04-22T09:01:41.171Z,93779.72
2023-04-22T09:04:10.024Z,93780.75
2023-04-22T09:06:38.824Z,93789.66
2023-04-22T09:09:05.775Z,93781.56
2023-04-22T09:11:33.954Z,93785.19
2023-04-22T09:14:00.591Z,93787.03
2023-04-22T09:16:27.226Z,93780.16
2023-04-22T09:18:53.953Z,93784.44
2023-04-22T09:21:20.658Z,93790.19
2023-04-22T09:23:49.671Z,93775.75
2023-04-22T09:26:18.796Z,93781.03
2023-04-22T09:28:58.391Z,93764.44
2023-04-22T09:31:25.850Z,93772.16
2023-04-22T09:33:56.608Z,93762.44
2023-04-22T09:36:27.309Z,93760.84
2023-04-22T09:38:56.152Z,93760.28
2023-04-22T09:41:33.887Z,93760.16
2023-04-22T09:44:02.220Z,93758.97
2023-04-22T09:46:30.248Z,93756.09
2023-04-22T09:48:59.648Z,93744.59
2023-04-22T09:51:30.649Z,93754.31
2023-04-22T09:54:10.208Z,93748.13
2023-04-22T09:56:50.786Z,93740.84
2023-04-22T09:59:28.239Z,93747.25
2023-04-22T10:02:04.663Z,93731.31
2023-04-22T10:04:31.612Z,93731.91
2023-04-22T10:06:58.560Z,93716.97
2023-04-22T10:09:26.059Z,93710.00
2023-04-22T10:11:54.396Z,93718.56
2023-04-22T10:14:22.374Z,93710.03
2023-04-22T10:16:51.010Z,93707.31
2023-04-22T10:19:21.283Z,93704.13
2023-04-22T10:21:50.114Z,93697.41
2023-04-22T10:24:18.140Z,93686.97
2023-04-22T10:26:56.686Z,93697.94
2023-04-22T10:29:24.566Z,93703.22
2023-04-22T10:32:11.022Z,93702.59
2023-04-22T10:34:41.054Z,93694.66
2023-04-22T10:37:12.087Z,93693.88
2023-04-22T10:39:40.612Z,93679.53
2023-04-22T10:42:10.385Z,93682.91
2023-04-22T10:44:54.123Z,93690.75
2023-04-22T10:47:35.274Z,93684.06
2023-04-22T10:50:27.466Z,93676.78
2023-04-22T10:53:03.588Z,93670.75
2023-04-22T10:55:51.772Z,93662.44
2023-04-22T10:58:24.935Z,93659.19
2023-04-22T11:01:00.243Z,93666.94
2023-04-22T11:03:29.235Z,93667.66
2023-04-22T11:06:18.433Z,93663.06
2023-04-22T11:09:08.519Z,93653.91
2023-04-22T11:11:35.160Z,93657.00
2023-04-22T11:14:02.001Z,93656.84
2023-04-22T11:16:28.680Z,93636.50
2023-04-22T11:18:56.216Z,93653.94
2023-04-22T11:21:23.087Z,93652.03
2023-04-22T11:23:53.732Z,93656.56
2023-04-22T11:26:33.842Z,93648.53
2023-04-22T11:29:00.680Z,93646.28
2023-04-22T11:31:27.681Z,93637.97
2023-04-22T11:33:54.378Z,93637.88
2023-04-22T11:36:22.676Z,93640.22
2023-04-22T11:38:56.576Z,93637.53
2023-04-22T11:41:23.904Z,93627.03
2023-04-22T11:43:50.667Z,93626.56
2023-04-22T11:46:28.308Z,93619.88
2023-04-22T11:48:55.024Z,93626.88
2023-04-22T11:51:21.738Z,93625.59
2023-04-22T11:53:51.579Z,93628.56
2023-04-22T11:56:18.183Z,93627.34
2023-04-22T11:58:44.994Z,93628.31
2023-04-22T12:01:13.998Z,93625.78
2023-04-22T12:03:40.929Z,93617.63
2023-04-22T12:06:07.796Z,93613.47
2023-04-22T12:08:44.530Z,93611.59
2023-04-22T12:11:12.192Z,93607.66
2023-04-22T12:13:38.885Z,93618.34
2023-04-22T12:16:12.128Z,93613.66
2023-04-22T12:18:41.006Z,93617.66
2023-04-22T12:21:07.677Z,93597.69
2023-04-22T12:23:48.695Z,93602.00
2023-04-22T12:26:18.891Z,93606.59
2023-04-22T12:28:46.079Z,93602.34
2023-04-22T12:31:14.923Z,93609.69
2023-04-22T12:33:41.895Z,93602.50
2023-04-22T12:36:08.834Z,93603.53
2023-04-22T12:38:35.820Z,93589.44
2023-04-22T12:41:04.328Z,93593.34
2023-04-22T12:43:33.538Z,93596.03
2023-04-22T12:46:00.312Z,93589.53
2023-04-22T12:48:27.150Z,93592.28
2023-04-22T12:50:53.897Z,93574.97
2023-04-22T12:53:21.756Z,93596.97
2023-04-22T12:55:48.653Z,93595.19
2023-04-22T12:58:15.770Z,93589.91
2023-04-22T13:00:42.493Z,93584.47
2023-04-22T13:03:09.346Z,93577.91
2023-04-22T13:05:36.308Z,93582.69
2023-04-22T13:08:07.188Z,93575.81
2023-04-22T13:10:35.156Z,93570.94
2023-04-22T13:15:34.246Z,93576.59
2023-04-22T13:18:00.979Z,93568.00
2023-04-22T13:20:27.864Z,93559.03
2023-04-22T13:22:54.666Z,93565.66
2023-04-22T13:25:21.556Z,93559.44
2023-04-22T13:27:48.305Z,93561.91
2023-04-22T13:30:15.236Z,93544.75
2023-04-22T13:32:41.998Z,93551.09
2023-04-22T13:35:09.393Z,93550.91
2023-04-22T13:37:36.692Z,93552.03
2023-04-22T13:40:06.052Z,93547.84
2023-04-22T13:42:33.107Z,93549.56
2023-04-22T13:44:59.849Z,93544.22
2023-04-22T13:47:26.680Z,93538.38
2023-04-22T13:49:53.411Z,93538.41
2023-04-22T13:52:20.128Z,93545.03
2023-04-22T13:54:46.934Z,93535.03
2023-04-22T13:57:13.597Z,93547.31
2023-04-22T13:59:41.758Z,93535.94
2023-04-22T14:02:08.925Z,93528.81
2023-04-22T14:04:35.905Z,93527.09
2023-04-22T14:07:04.138Z,93533.03
2023-04-22T14:09:31.168Z,93525.63
2023-04-22T14:11:58.286Z,93526.69
2023-04-22T14:14:24.980Z,93530.50
2023-04-22T14:16:52.007Z,93523.22
2023-04-22T14:19:18.995Z,93520.63
2023-04-22T14:21:46.251Z,93514.97
2023-04-22T14:24:13.115Z,93517.34
2023-04-22T14:26:39.886Z,93512.53
2023-04-22T14:29:06.806Z,93519.31
2023-04-22T14:31:33.591Z,93513.19
2023-04-22T14:34:00.434Z,93505.97
2023-04-22T14:36:27.966Z,93510.00
2023-04-22T14:38:54.716Z,93505.22
2023-04-22T14:41:21.757Z,93504.41
2023-04-22T14:43:48.535Z,93500.13
2023-04-22T14:46:15.394Z,93491.97
2023-04-22T14:48:42.166Z,93505.56
2023-04-22T14:51:08.940Z,93505.63
2023-04-22T14:53:36.639Z,93490.03
2023-04-22T14:56:03.671Z,93504.41
2023-04-22T14:58:33.454Z,93498.91
2023-04-22T15:01:00.390Z,93490.78
2023-04-22T15:03:27.700Z,93497.94
2023-04-22T15:05:55.680Z,93496.31
2023-04-22T15:08:25.227Z,93496.13
2023-04-22T15:10:51.997Z,93490.13
2023-04-22T15:13:19.687Z,93484.44
2023-04-22T15:15:46.878Z,93491.22
2023-04-22T15:18:13.784Z,93494.28
2023-04-22T15:20:41.436Z,93493.50
2023-04-22T15:23:08.198Z,93499.66
2023-04-22T15:25:35.857Z,93493.59
2023-04-22T15:28:03.098Z,93499.53
2023-04-22T15:30:29.925Z,93491.31
2023-04-22T15:32:56.713Z,93489.38
2023-04-22T15:35:24.138Z,93491.59
2023-04-22T15:37:51.038Z,93488.72
2023-04-22T15:40:17.738Z,93490.03
2023-04-22T15:42:44.561Z,93489.81
2023-04-22T15:45:11.603Z,93495.63
2023-04-22T15:47:41.397Z,93495.75
2023-04-22T15:50:09.720Z,93491.91
2023-04-22T15:52:38.169Z,93500.94
2023-04-22T15:55:08.057Z,93486.00
2023-04-22T15:57:35.510Z,93498.22
2023-04-22T16:00:11.725Z,93497.66
2023-04-22T16:02:40.404Z,93492.13
2023-04-22T16:05:07.581Z,93496.31
2023-04-22T16:07:34.385Z,93496.66
2023-04-22T16:10:01.410Z,93492.53
2023-04-22T16:12:28.109Z,93487.09
2023-04-22T16:14:54.698Z,93491.34
2023-04-22T16:17:21.602Z,93485.97
2023-04-22T16:19:48.425Z,93486.19
2023-04-22T16:22:15.293Z,93484.63
2023-04-22T16:24:44.204Z,93482.13
2023-04-22T16:27:16.594Z,93481.91
2023-04-22T16:29:43.983Z,93483.84
2023-04-22T16:32:11.275Z,93478.06
2023-04-22T16:34:38.466Z,93479.75
2023-04-22T16:37:06.228Z,93482.28
2023-04-22T16:39:33.308Z,93476.84
2023-04-22T16:42:00.220Z,93472.75
2023-04-22T16:44:26.976Z,93479.19
2023-04-22T16:46:53.550Z,93466.28
2023-04-22T16:49:20.408Z,93480.19
2023-04-22T16:51:47.199Z,93485.63
2023-04-22T16:54:13.943Z,93481.25
2023-04-22T16:56:40.647Z,93483.88
2023-04-22T16:59:07.265Z,93485.16
2023-04-22T17:01:34.211Z,93483.13
2023-04-22T17:04:01.587Z,93480.00
2023-04-22T17:06:28.585Z,93486.31
2023-04-22T17:08:55.339Z,93486.44
2023-04-22T17:11:23.990Z,93481.81
2023-04-22T17:13:51.438Z,93481.47
2023-04-22T17:16:18.789Z,93467.59
2023-04-22T17:18:47.097Z,93467.03
2023-04-22T17:21:14.210Z,93487.25
2023-04-22T17:23:41.003Z,93491.78
2023-04-22T17:26:08.011Z,93485.75
2023-04-22T17:28:34.726Z,93494.22
2023-04-22T17:31:01.396Z,93506.94
2023-04-22T17:33:29.181Z,93504.81
2023-04-22T17:35:56.186Z,93500.19
2023-04-22T17:38:22.770Z,93514.44
2023-04-22T17:40:49.420Z,93508.69
2023-04-22T17:43:16.026Z,93509.78
2023-04-22T17:45:42.608Z,93483.97
2023-04-22T17:48:09.257Z,93517.19
2023-04-22T17:50:36.272Z,93516.41
2023-04-22T17:53:03.019Z,93521.91
2023-04-22T17:55:35.297Z,93524.00
2023-04-22T17:58:03.131Z,93518.53
2023-04-22T18:00:30.792Z,93530.84
2023-04-22T18:02:57.867Z,93533.47
2023-04-22T18:05:24.653Z,93535.81
2023-04-22T18:07:51.386Z,93537.16
2023-04-22T18:10:18.104Z,93531.63
2023-04-22T18:12:44.817Z,93537.41
2023-04-22T18:15:11.417Z,93541.31
2023-04-22T18:17:38.082Z,93543.94
2023-04-22T18:20:17.578Z,93547.06
2023-04-22T18:22:46.772Z,93548.63
2023-04-22T18:25:13.454Z,93560.66
2023-04-22T18:27:40.210Z,93558.22
2023-04-22T18:30:07.353Z,93544.03
2023-04-22T18:32:34.124Z,93560.78
2023-04-22T18:35:00.905Z,93555.53
2023-04-22T18:37:30.883Z,93565.16
2023-04-22T18:39:57.712Z,93570.84
2023-04-22T18:42:24.599Z,93570.31
2023-04-22T18:44:51.308Z,93568.50
2023-04-22T18:47:18.040Z,93565.28
2023-04-22T18:49:45.584Z,93585.13
2023-04-22T18:52:12.323Z,93585.31
2023-04-22T18:54:39.450Z,93598.22
2023-04-22T18:57:06.642Z,93590.63
2023-04-22T18:59:33.305Z,93582.16
2023-04-22T19:02:00.358Z,93593.22
2023-04-22T19:04:27.564Z,93598.94
2023-04-22T19:06:56.964Z,93595.34
2023-04-22T19:09:24.068Z,93600.22
2023-04-22T19:11:50.691Z,93607.72
2023-04-22T19:14:17.621Z,93603.34
2023-04-22T19:16:44.296Z,93605.63
2023-04-22T19:19:12.200Z,93619.59
2023-04-22T19:21:39.462Z,93615.53
2023-04-22T19:24:06.812Z,93616.19
2023-04-22T19:26:33.824Z,93626.47
2023-04-22T19:29:00.494Z,93625.25
2023-04-22T19:31:30.456Z,93630.16
2023-04-22T19:33:57.298Z,93628.72
2023-04-22T19:36:24.149Z,93615.75
2023-04-22T19:38:50.776Z,93619.44
2023-04-22T19:41:17.484Z,93627.13
2023-04-22T19:43:44.117Z,93632.22
2023-04-22T19:46:10.928Z,93628.09
2023-04-22T19:48:37.919Z,93621.56
2023-04-22T19:51:06.211Z,93629.97
2023-04-22T19:53:33.446Z,93634.59
2023-04-22T19:56:00.519Z,93623.94
2023-04-22T19:58:28.405Z,93621.47
2023-04-22T20:00:55.454Z,93633.28
2023-04-22T20:03:22.906Z,93631.09
2023-04-22T20:05:50.577Z,93635.03
2023-04-22T20:08:19.731Z,93632.69
2023-04-22T20:10:49.532Z,93627.34
2023-04-22T20:13:17.341Z,93632.53
2023-04-22T20:15:44.519Z,93632.44
2023-04-22T20:18:12.100Z,93618.25
2023-04-22T20:20:40.512Z,93645.91
2023-04-22T20:23:10.525Z,93632.06
2023-04-22T20:25:44.133Z,93632.06
2023-04-22T20:28:11.003Z,93636.16
2023-04-22T20:30:37.851Z,93636.09
2023-04-22T20:33:04.681Z,93638.81
2023-04-22T20:35:32.138Z,93642.78
2023-04-22T20:38:00.227Z,93644.13
2023-04-22T20:40:27.322Z,93633.56
2023-04-22T20:42:57.320Z,93641.50
2023-04-22T20:45:24.852Z,93646.91
2023-04-22T20:47:52.113Z,93639.31
2023-04-22T20:50:20.707Z,93637.75
2023-04-22T20:52:48.552Z,93646.41
2023-04-22T20:55:15.216Z,93642.16
2023-04-22T20:57:41.839Z,93641.84
2023-04-22T21:00:10.236Z,93644.59
2023-04-22T21:02:37.976Z,93647.19
2023-04-22T21:05:05.422Z,93639.16
2023-04-22T21:07:32.879Z,93640.41
2023-04-22T21:09:59.604Z,93650.66
2023-04-22T21:12:27.349Z,93650.19
2023-04-22T21:14:54.428Z,93654.28
2023-04-22T21:17:25.212Z,93664.84
2023-04-22T21:19:53.438Z,93662.25
2023-04-22T21:22:24.263Z,93662.72
2023-04-22T21:24:52.884Z,93662.72
2023-04-22T21:27:20.632Z,93659.63
2023-04-22T21:29:48.578Z,93648.09
2023-04-22T21:32:16.079Z,93653.53
2023-04-22T21:34:43.284Z,93659.38
2023-04-22T21:37:10.486Z,93663.88
2023-04-22T21:39:37.237Z,93661.50
2023-04-22T21:42:07.923Z,93658.13
2023-04-22T21:44:37.220Z,93666.00
2023-04-22T21:47:04.461Z,93664.53
2023-04-22T21:49:31.252Z,93655.88
2023-04-22T21:51:58.399Z,93669.06
2023-04-22T21:54:25.266Z,93660.69
2023-04-22T21:56:51.982Z,93666.22
2023-04-22T21:59:18.610Z,93655.16
2023-04-22T22:01:45.820Z,93656.06
2023-04-22T22:04:15.448Z,93662.47
2023-04-22T22:06:42.912Z,93663.19
2023-04-22T22:09:09.634Z,93666.09
2023-04-22T22:11:36.311Z,93660.25
2023-04-22T22:14:03.036Z,93659.78
2023-04-22T22:16:31.018Z,93660.81
2023-04-22T22:18:58.445Z,93654.31
2023-04-22T22:21:25.386Z,93662.91
2023-04-22T22:23:52.054Z,93657.19
2023-04-22T22:26:19.014Z,93661.09
2023-04-22T22:28:45.619Z,93665.16
2023-04-22T22:31:12.242Z,93671.72
2023-04-22T22:33:38.857Z,93664.13
2023-04-22T22:36:05.570Z,93668.66
2023-04-22T22:38:32.358Z,93670.25
2023-04-22T22:40:58.970Z,93669.78
2023-04-22T22:43:25.713Z,93676.13
2023-04-22T22:45:52.668Z,93682.91
2023-04-22T22:48:19.593Z,93676.63
2023-04-22T22:50:49.074Z,93683.41
2023-04-22T22:53:15.703Z,93668.53
2023-04-22T22:55:42.519Z,93683.50
2023-04-22T22:58:09.121Z,93686.56
2023-04-22T23:00:36.714Z,93683.97
2023-04-22T23:03:04.091Z,93671.69
2023-04-22T23:05:31.214Z,93674.72
2023-04-22T23:07:57.853Z,93673.03
2023-04-22T23:10:24.671Z,93660.19
2023-04-22T23:12:51.487Z,93672.94
2023-04-22T23:15:18.222Z,93669.06
2023-04-22T23:17:45.144Z,93672.81
2023-04-22T23:20:12.274Z,93674.59
2023-04-22T23:22:40.708Z,93674.63
2023-04-22T23:25:08.721Z,93671.91
2023-04-22T23:27:36.129Z,93677.19
2023-04-22T23:30:04.401Z,93672.81
2023-04-22T23:32:32.537Z,93666.94
2023-04-22T23:35:00.738Z,93666.13
2023-04-22T23:37:29.473Z,93661.53
2023-04-22T23:39:56.361Z,93668.19
2023-04-22T23:42:23.041Z,93674.06
2023-04-22T23:44:49.911Z,93660.84
2023-04-22T23:47:16.635Z,93663.00
2023-04-22T23:49:43.571Z,93657.03
2023-04-22T23:52:11.098Z,93660.06
2023-04-22T23:54:38.214Z,93639.78
2023-04-22T23:57:05.236Z,93653.97
2023-04-22T23:59:32.447Z,93655.56
